Time;durP1;ratioP1;P1;durP2;ratioP2;P2;SDS_P1;SDS_P2;PMS_P1;PMS_P2;Temp;Humidity;BMP_temperature;BMP_pressure;BME280_temperature;BME280_humidity;BME280_pressure;Samples;Min_cycle;Max_cycle;Signal;HPM_P1;HPM_P2
2022/05/15 00:03:18;;;;;;;5.88;3.22;;;20.00;56.40;;;;;;10431658;28;20037;-62
2022/05/15 00:08:20;;;;;;;6.88;3.78;;;20.00;56.40;;;;;;10434291;28;20029;-63
2022/05/15 00:13:22;;;;;;;6.70;3.58;;;20.00;56.40;;;;;;10418869;28;20025;-62
2022/05/15 00:18:24;;;;;;;6.05;4.10;;;20.00;56.40;;;;;;10418697;28;20057;-61
2022/05/15 00:23:25;;;;;;;8.15;4.53;;;20.00;56.40;;;;;;10439888;28;20025;-62
2022/05/15 00:28:26;;;;;;;6.30;3.20;;;20.00;56.40;;;;;;10418442;28;20396;-62
2022/05/15 00:33:27;;;;;;;8.57;3.67;;;20.00;56.40;;;;;;10416594;28;20087;-60
2022/05/15 00:38:28;;;;;;;5.88;3.78;;;19.90;56.30;;;;;;10417845;28;20033;-62
2022/05/15 00:43:54;;;;;;;4.30;3.17;;;19.90;56.20;;;;;;10415039;28;20029;-62
2022/05/15 00:48:59;;;;;;;6.90;3.83;;;19.90;56.20;;;;;;10417446;28;20039;-60
2022/05/15 00:54:31;;;;;;;6.50;2.75;;;19.90;56.20;;;;;;10416885;28;20030;-62
2022/05/15 00:59:42;;;;;;;7.82;3.42;;;19.90;56.20;;;;;;10417178;28;20051;-62
2022/05/15 01:04:43;;;;;;;6.15;3.63;;;19.90;56.10;;;;;;10416002;28;20087;-62
2022/05/15 01:09:45;;;;;;;4.57;3.28;;;19.90;56.20;;;;;;10432116;28;20504;-62
2022/05/15 01:14:47;;;;;;;6.47;3.35;;;19.90;56.10;;;;;;10431514;28;20031;-62
2022/05/15 01:19:47;;;;;;;6.70;3.22;;;19.90;56.10;;;;;;10415186;28;20025;-62
2022/05/15 01:24:48;;;;;;;9.02;3.67;;;19.90;56.10;;;;;;10423461;28;20511;-62
2022/05/15 01:29:50;;;;;;;6.53;3.38;;;19.90;56.10;;;;;;10415904;28;20056;-62
2022/05/15 01:34:50;;;;;;;6.97;3.88;;;19.80;56.00;;;;;;10414080;28;20046;-62
2022/05/15 01:39:51;;;;;;;6.97;3.38;;;19.80;56.00;;;;;;10415806;28;20440;-61
2022/05/15 01:44:52;;;;;;;10.02;4.88;;;19.80;56.00;;;;;;10414746;28;20061;-62
2022/05/15 01:49:52;;;;;;;7.03;4.03;;;19.80;55.90;;;;;;10414974;28;20068;-63
2022/05/15 01:54:53;;;;;;;11.43;3.50;;;19.80;55.90;;;;;;10414501;28;20032;-62
2022/05/15 01:59:54;;;;;;;5.90;3.35;;;19.80;55.90;;;;;;10430172;28;20069;-62
2022/05/15 02:04:54;;;;;;;6.55;3.97;;;19.80;56.00;;;;;;10414308;28;20180;-62
2022/05/15 02:09:55;;;;;;;4.97;3.35;;;19.80;55.90;;;;;;10417130;28;20544;-62
2022/05/15 02:14:57;;;;;;;5.03;2.95;;;19.80;56.00;;;;;;10413854;28;20064;-61
2022/05/15 02:19:59;;;;;;;5.63;3.65;;;19.80;55.90;;;;;;10412946;28;20029;-61
2022/05/15 02:25:00;;;;;;;5.22;3.10;;;19.80;55.90;;;;;;10418720;28;20026;-62
2022/05/15 02:30:04;;;;;;;7.78;3.83;;;19.80;55.90;;;;;;10413795;28;20021;-61
2022/05/15 02:35:05;;;;;;;11.48;5.85;;;19.70;55.90;;;;;;10412841;28;20366;-63
2022/05/15 02:40:07;;;;;;;6.15;3.45;;;19.70;55.80;;;;;;10413453;28;20022;-62
2022/05/15 02:45:09;;;;;;;8.13;3.40;;;19.70;55.80;;;;;;10411721;28;20398;-62
2022/05/15 02:55:29;;;;;;;6.78;3.92;;;19.70;55.70;;;;;;10410520;28;20041;-62
2022/05/15 03:00:30;;;;;;;6.10;3.92;;;19.70;55.70;;;;;;10412984;28;20079;-62
2022/05/15 03:05:31;;;;;;;10.07;3.60;;;19.70;55.70;;;;;;10429313;28;20041;-61
2022/05/15 03:10:32;;;;;;;7.72;4.22;;;19.70;55.70;;;;;;10421355;28;20056;-62
2022/05/15 03:15:32;;;;;;;6.43;3.17;;;19.60;55.70;;;;;;10420746;28;20061;-62
2022/05/15 03:20:33;;;;;;;5.70;3.58;;;19.60;55.60;;;;;;10419837;28;20026;-61
2022/05/15 03:25:35;;;;;;;5.53;3.25;;;19.60;55.60;;;;;;10428830;28;20115;-62
2022/05/15 03:30:44;;;;;;;5.47;3.33;;;19.60;56.30;;;;;;10420654;28;20048;-62
2022/05/15 03:35:45;;;;;;;6.10;3.58;;;19.60;55.60;;;;;;10418317;28;20038;-62
2022/05/15 03:40:45;;;;;;;6.07;3.15;;;19.70;55.70;;;;;;10417508;28;20366;-61
2022/05/15 03:45:46;;;;;;;5.82;3.50;;;19.60;55.60;;;;;;10420002;28;20064;-62
2022/05/15 03:50:47;;;;;;;6.38;3.53;;;19.60;55.60;;;;;;10419583;28;20040;-62
2022/05/15 03:55:48;;;;;;;4.78;2.92;;;19.60;55.60;;;;;;10419549;28;20022;-61
2022/05/15 04:00:49;;;;;;;5.03;3.13;;;19.60;55.60;;;;;;10418223;28;20028;-61
2022/05/15 04:05:49;;;;;;;7.07;3.67;;;19.60;55.60;;;;;;10418962;28;20032;-62
2022/05/15 04:10:50;;;;;;;6.45;3.40;;;19.60;55.50;;;;;;10419108;28;20032;-62
2022/05/15 04:15:51;;;;;;;7.18;3.97;;;19.60;55.60;;;;;;10417400;28;20037;-61
2022/05/15 04:20:52;;;;;;;8.10;3.20;;;19.60;55.60;;;;;;10433158;28;20033;-62
2022/05/15 04:25:53;;;;;;;7.82;3.92;;;19.50;55.60;;;;;;10411407;28;20068;-62
2022/05/15 04:30:53;;;;;;;8.05;3.70;;;19.50;55.50;;;;;;10418005;28;20084;-62
2022/05/15 04:35:54;;;;;;;8.35;3.65;;;19.50;55.50;;;;;;10417306;28;20084;-62
2022/05/15 04:40:55;;;;;;;5.47;3.88;;;19.50;55.50;;;;;;10416939;28;20025;-62
2022/05/15 04:45:56;;;;;;;6.90;3.42;;;19.50;55.50;;;;;;10416306;28;20025;-62
2022/05/15 04:50:56;;;;;;;7.68;4.18;;;19.50;55.50;;;;;;10416735;28;20069;-62
2022/05/15 04:55:59;;;;;;;6.85;4.10;;;19.50;55.60;;;;;;10407579;28;20113;-61
2022/05/15 05:01:00;;;;;;;8.07;3.97;;;19.50;55.50;;;;;;10414815;28;20374;-62
2022/05/15 05:06:01;;;;;;;5.10;3.25;;;19.50;55.60;;;;;;10412449;28;20040;-62
2022/05/15 05:11:01;;;;;;;7.63;3.33;;;19.50;55.60;;;;;;10415345;28;20025;-61
2022/05/15 05:16:02;;;;;;;7.68;3.67;;;19.50;55.60;;;;;;10408705;28;20033;-60
2022/05/15 05:21:03;;;;;;;14.30;3.70;;;19.50;55.80;;;;;;10415417;28;20029;-60
2022/05/15 05:26:04;;;;;;;7.47;2.97;;;19.50;56.60;;;;;;10416219;28;20041;-59
2022/05/15 05:31:05;;;;;;;7.63;3.10;;;19.60;56.80;;;;;;10415096;28;20053;-59
2022/05/15 05:36:07;;;;;;;13.02;5.18;;;19.60;55.40;;;;;;10415721;28;20030;-57
2022/05/15 05:41:08;;;;;;;14.25;5.28;;;19.60;56.30;;;;;;10415098;28;20033;-59
2022/05/15 05:46:08;;;;;;;12.63;5.55;;;19.60;56.20;;;;;;10413676;28;20439;-60
2022/05/15 05:51:09;;;;;;;13.20;4.85;;;19.60;56.00;;;;;;10411526;28;20030;-59
2022/05/15 05:56:10;;;;;;;13.13;6.20;;;19.60;55.40;;;;;;10413992;28;20069;-62
2022/05/15 06:01:11;;;;;;;12.30;4.30;;;19.60;55.00;;;;;;10413945;28;20043;-61
2022/05/15 06:06:11;;;;;;;8.65;4.50;;;19.50;55.30;;;;;;10420821;28;20418;-60
2022/05/15 06:11:12;;;;;;;14.65;6.28;;;19.50;55.80;;;;;;10413673;28;20102;-60
2022/05/15 06:16:13;;;;;;;15.75;4.65;;;19.50;55.30;;;;;;10413186;28;20109;-61
2022/05/15 06:21:14;;;;;;;11.82;4.60;;;19.60;55.40;;;;;;10415530;28;20422;-59
2022/05/15 06:26:15;;;;;;;13.18;5.05;;;19.50;56.00;;;;;;10412293;28;20072;-62
2022/05/15 06:31:16;;;;;;;14.35;5.68;;;19.60;55.90;;;;;;10410905;28;20045;-62
2022/05/15 06:36:16;;;;;;;13.10;5.35;;;19.60;55.90;;;;;;10410103;28;20124;-61
2022/05/15 06:41:18;;;;;;;15.98;5.15;;;19.60;55.60;;;;;;10411218;28;20083;-60
2022/05/15 06:46:18;;;;;;;12.77;4.80;;;19.50;55.50;;;;;;10411653;28;20243;-62
2022/05/15 06:51:19;;;;;;;14.23;5.05;;;19.50;55.60;;;;;;10410175;28;20162;-61
2022/05/15 07:01:39;;;;;;;14.88;5.55;;;19.50;55.60;;;;;;10410086;28;20065;-61
2022/05/15 07:06:40;;;;;;;13.10;5.55;;;19.50;55.50;;;;;;10409598;28;20033;-62
2022/05/15 07:11:41;;;;;;;9.85;4.47;;;19.50;55.60;;;;;;10410098;28;20029;-62
2022/05/15 07:16:42;;;;;;;15.55;5.43;;;19.50;55.60;;;;;;10411053;28;20109;-61
2022/05/15 07:21:43;;;;;;;12.38;5.20;;;19.50;56.20;;;;;;10412676;28;20036;-61
2022/05/15 07:26:46;;;;;;;12.57;5.18;;;19.60;55.40;;;;;;10398890;28;20465;-61
2022/05/15 07:31:47;;;;;;;11.27;5.00;;;19.60;55.30;;;;;;10410320;28;20050;-61
2022/05/15 07:36:50;;;;;;;12.63;5.28;;;19.60;55.20;;;;;;10411263;28;20032;-62
2022/05/15 07:41:51;;;;;;;11.73;5.03;;;19.60;55.20;;;;;;10415518;28;20045;-61
2022/05/15 07:46:52;;;;;;;12.13;6.00;;;19.60;55.20;;;;;;10407114;28;20037;-62
2022/05/15 07:51:52;;;;;;;15.93;6.55;;;19.60;55.20;;;;;;10412138;28;20163;-62
2022/05/15 07:56:54;;;;;;;11.57;5.00;;;19.60;55.30;;;;;;10432782;28;20457;-61
2022/05/15 08:01:55;;;;;;;12.93;6.00;;;19.60;55.30;;;;;;10417502;28;20037;-61
2022/05/15 08:12:15;;;;;;;12.32;5.32;;;19.70;55.50;;;;;;10417608;28;20066;-61
2022/05/15 08:17:16;;;;;;;13.57;5.90;;;19.70;55.60;;;;;;10417731;28;20045;-62
2022/05/15 08:27:36;;;;;;;16.10;6.67;;;19.70;55.80;;;;;;10417727;28;20494;-61
2022/05/15 08:32:37;;;;;;;11.25;5.03;;;19.70;55.90;;;;;;10430961;28;20292;-62
2022/05/15 08:37:38;;;;;;;14.27;7.03;;;19.70;55.90;;;;;;10417266;28;20029;-61
2022/05/15 08:42:54;;;;;;;9.55;5.25;;;19.70;56.00;;;;;;10416957;28;20018;-63
2022/05/15 08:48:13;;;;;;;8.07;5.38;;;19.80;56.40;;;;;;10416266;28;20041;-61
2022/05/15 08:53:35;;;;;;;18.30;5.50;;;19.80;56.40;;;;;;10413255;28;20029;-62
2022/05/15 08:58:56;;;;;;;13.63;6.00;;;19.80;56.60;;;;;;10415547;28;20358;-61
2022/05/15 09:03:57;;;;;;;13.90;5.63;;;19.80;56.90;;;;;;10410390;28;20045;-61
2022/05/15 09:09:24;;;;;;;12.98;5.63;;;19.90;56.80;;;;;;10412320;28;20060;-60
2022/05/15 09:14:47;;;;;;;15.43;5.65;;;19.80;56.70;;;;;;10410190;28;20107;-62
2022/05/15 09:19:56;;;;;;;11.10;5.32;;;19.80;56.90;;;;;;10412303;28;20037;-62
2022/05/15 09:24:57;;;;;;;14.15;6.05;;;19.80;57.60;;;;;;10415733;28;20057;-61
2022/05/15 09:30:05;;;;;;;10.48;4.78;;;19.90;57.00;;;;;;10415470;28;20029;-62
2022/05/15 09:35:37;;;;;;;11.80;5.13;;;19.90;57.00;;;;;;10413117;28;20095;-61
2022/05/15 09:46:38;;;;;;;13.48;4.93;;;20.00;56.80;;;;;;10414643;28;20128;-62
2022/05/15 09:51:52;;;;;;;9.73;4.28;;;20.00;56.60;;;;;;10413353;28;20036;-61
2022/05/15 09:57:18;;;;;;;8.88;4.78;;;20.00;56.10;;;;;;10419279;28;20112;-60
2022/05/15 10:02:22;;;;;;;14.65;5.10;;;20.00;56.10;;;;;;10412127;28;20033;-60
2022/05/15 10:07:43;;;;;;;10.18;4.03;;;20.00;56.10;;;;;;10412662;28;20029;-60
2022/05/15 10:12:49;;;;;;;9.65;4.45;;;20.00;56.50;;;;;;10400436;28;20045;-60
2022/05/15 10:18:00;;;;;;;14.55;4.35;;;20.10;55.30;;;;;;10399793;28;20053;-60
2022/05/15 10:23:14;;;;;;;10.57;4.57;;;20.10;55.60;;;;;;10420050;28;20501;-61
2022/05/15 10:28:59;;;;;;;8.25;4.63;;;20.10;56.00;;;;;;10412065;28;20451;-59
2022/05/15 10:34:03;;;;;;;7.80;4.10;;;20.10;56.00;;;;;;10418626;28;20129;-60
2022/05/15 10:39:36;;;;;;;13.52;4.40;;;20.10;55.80;;;;;;10424233;28;20077;-61
2022/05/15 10:45:21;;;;;;;8.48;4.53;;;20.20;56.00;;;;;;10412639;28;20416;-60
2022/05/15 10:50:30;;;;;;;13.10;4.28;;;20.20;55.70;;;;;;10426192;28;20029;-60
2022/05/15 11:01:21;;;;;;;8.63;4.18;;;20.20;55.80;;;;;;10412432;28;19913;-61
2022/05/15 11:07:00;;;;;;;9.75;4.55;;;20.30;55.70;;;;;;10413271;28;20040;-60
2022/05/15 11:12:28;;;;;;;10.88;4.65;;;20.30;55.60;;;;;;10427139;28;20026;-60
2022/05/15 11:17:40;;;;;;;11.55;3.95;;;20.30;55.90;;;;;;10411246;28;20080;-60
2022/05/15 11:22:48;;;;;;;7.53;3.83;;;20.30;56.00;;;;;;10407887;28;20026;-60
2022/05/15 11:27:51;;;;;;;9.40;4.20;;;20.30;55.80;;;;;;10399538;28;20021;-59
2022/05/15 11:32:52;;;;;;;9.45;3.85;;;20.40;55.60;;;;;;10409089;28;20180;-58
2022/05/15 11:38:28;;;;;;;12.02;3.90;;;20.40;55.50;;;;;;10420421;28;20124;-60
2022/05/15 11:43:29;;;;;;;8.60;3.47;;;20.50;55.20;;;;;;10435219;28;20037;-61
2022/05/15 11:48:42;;;;;;;8.52;3.42;;;20.50;54.90;;;;;;10420152;28;20462;-61
2022/05/15 11:53:55;;;;;;;7.00;3.47;;;20.50;55.00;;;;;;10418103;28;20044;-60
2022/05/15 11:59:08;;;;;;;9.00;3.53;;;20.50;55.00;;;;;;10434491;28;20053;-61
2022/05/15 12:04:42;;;;;;;9.73;3.67;;;20.60;55.00;;;;;;10433646;28;20474;-61
2022/05/15 12:09:44;;;;;;;9.27;4.35;;;20.60;54.60;;;;;;10419204;28;20116;-62
2022/05/15 12:15:19;;;;;;;10.77;4.47;;;20.60;54.40;;;;;;10418966;28;20068;-61
2022/05/15 12:20:34;;;;;;;7.07;3.80;;;20.60;54.50;;;;;;10434385;28;20033;-61
2022/05/15 12:26:08;;;;;;;7.65;3.30;;;20.60;54.40;;;;;;10433796;28;20064;-61
2022/05/15 12:31:16;;;;;;;10.27;4.22;;;20.70;54.20;;;;;;10411400;28;20436;-61
2022/05/15 12:36:41;;;;;;;8.18;3.45;;;20.70;54.30;;;;;;10412369;28;20037;-61
2022/05/15 12:41:44;;;;;;;8.32;3.35;;;20.70;54.10;;;;;;10405005;28;20030;-61
2022/05/15 12:46:59;;;;;;;8.10;3.55;;;20.70;54.10;;;;;;10416869;28;20029;-61
2022/05/15 12:52:28;;;;;;;10.10;3.58;;;20.70;53.80;;;;;;10409950;28;20025;-60
2022/05/15 12:57:29;;;;;;;6.28;3.00;;;20.80;54.40;;;;;;10407466;28;20041;-61
2022/05/15 13:02:36;;;;;;;6.85;3.00;;;20.80;53.70;;;;;;10412289;28;20029;-59
2022/05/15 13:07:40;;;;;;;6.55;3.00;;;20.80;53.30;;;;;;10413675;28;20035;-62
2022/05/15 13:12:54;;;;;;;7.57;3.40;;;20.80;53.40;;;;;;10416268;28;20389;-62
2022/05/15 13:18:01;;;;;;;7.85;3.47;;;20.80;53.00;;;;;;10424359;28;20112;-61
2022/05/15 13:23:02;;;;;;;8.52;3.65;;;20.80;52.80;;;;;;10422517;28;20371;-61
2022/05/15 13:28:05;;;;;;;7.00;2.50;;;20.80;53.00;;;;;;10407145;28;20081;-60
2022/05/15 13:33:13;;;;;;;6.93;2.97;;;20.80;53.20;;;;;;10414060;28;20055;-61
2022/05/15 13:43:17;;;;;;;8.15;3.63;;;20.80;53.10;;;;;;10414591;28;20048;-61
2022/05/15 13:44:04;;;;;;;6.32;3.30;;;20.80;52.80;;;;;;10418442;28;20038;-61
2022/05/15 13:49:11;;;;;;;6.32;3.13;;;20.90;52.70;;;;;;10395437;28;20038;-61
2022/05/15 13:54:29;;;;;;;5.35;3.70;;;20.90;52.90;;;;;;10412688;28;20053;-59
2022/05/15 13:59:55;;;;;;;7.63;3.70;;;21.00;52.80;;;;;;10425842;28;20037;-61
2022/05/15 14:04:59;;;;;;;8.82;3.92;;;21.00;53.00;;;;;;10411489;28;20458;-62
2022/05/15 14:10:14;;;;;;;6.22;3.22;;;20.90;53.00;;;;;;10414629;28;20033;-62
2022/05/15 14:15:44;;;;;;;7.95;3.30;;;20.90;52.50;;;;;;10412949;28;20442;-61
2022/05/15 14:20:49;;;;;;;4.78;2.95;;;20.90;52.40;;;;;;10410098;28;20083;-61
2022/05/15 14:25:52;;;;;;;14.73;4.05;;;20.90;51.90;;;;;;10419474;28;20079;-62
2022/05/15 14:30:53;;;;;;;8.70;3.08;;;20.90;51.90;;;;;;10412416;28;20068;-62
2022/05/15 14:36:04;;;;;;;5.32;3.13;;;20.90;51.70;;;;;;10413295;28;20069;-61
2022/05/15 14:41:05;;;;;;;4.50;3.03;;;20.90;51.50;;;;;;10412664;28;20093;-61
2022/05/15 14:46:18;;;;;;;6.65;2.90;;;20.90;51.60;;;;;;10426390;28;20029;-61
2022/05/15 14:51:23;;;;;;;4.45;2.53;;;20.90;51.20;;;;;;10425563;28;20033;-62
2022/05/15 14:56:25;;;;;;;8.30;3.40;;;20.80;51.00;;;;;;10410816;28;20101;-61
2022/05/15 15:01:30;;;;;;;6.95;3.13;;;20.80;50.80;;;;;;10411786;28;20037;-64
2022/05/15 15:06:31;;;;;;;12.65;3.53;;;20.80;51.00;;;;;;10422335;28;20022;-62
2022/05/15 15:11:36;;;;;;;11.23;3.33;;;20.80;51.40;;;;;;10425243;28;20347;-61
2022/05/15 15:16:49;;;;;;;15.27;3.92;;;20.90;51.50;;;;;;10421520;28;20494;-60
2022/05/15 15:21:52;;;;;;;13.23;3.97;;;21.00;51.90;;;;;;10426107;28;20041;-60
2022/05/15 15:26:53;;;;;;;7.15;3.83;;;21.00;52.00;;;;;;10406329;28;20043;-60
2022/05/15 15:31:54;;;;;;;16.17;4.72;;;21.10;52.10;;;;;;10409029;28;20128;-61
2022/05/15 15:42:14;;;;;;;9.05;4.30;;;21.10;52.10;;;;;;10408311;28;20069;-61
2022/05/15 15:47:15;;;;;;;16.10;4.63;;;21.20;51.90;;;;;;10411050;28;20116;-60
2022/05/15 15:52:16;;;;;;;12.65;4.20;;;21.20;51.90;;;;;;10409101;28;20069;-61
2022/05/15 15:57:16;;;;;;;10.32;3.65;;;21.20;51.70;;;;;;10408006;28;20091;-61
2022/05/15 16:02:17;;;;;;;11.00;5.63;;;21.20;50.60;;;;;;10389120;28;20395;-60
2022/05/15 16:07:18;;;;;;;11.98;4.70;;;21.10;49.70;;;;;;10372399;28;20045;-61
2022/05/15 16:12:19;;;;;;;11.98;5.00;;;21.20;49.50;;;;;;10398920;28;20101;-61
2022/05/15 16:17:19;;;;;;;11.18;4.43;;;21.20;50.20;;;;;;10415667;28;20187;-61
2022/05/15 16:22:20;;;;;;;8.73;4.32;;;21.20;45.80;;;;;;10422599;28;20064;-62
2022/05/15 16:27:21;;;;;;;10.27;5.15;;;21.10;46.20;;;;;;10418659;28;20029;-61
2022/05/15 16:32:28;;;;;;;10.35;4.00;;;21.10;46.40;;;;;;10416572;28;20773;-61
2022/05/15 16:37:29;;;;;;;6.32;3.50;;;21.10;44.60;;;;;;10416511;28;20079;-61
2022/05/15 16:42:40;;;;;;;7.43;4.65;;;21.10;48.80;;;;;;10417237;28;20063;-62
2022/05/15 16:47:41;;;;;;;11.32;5.03;;;21.10;45.20;;;;;;10422350;28;20451;-61
2022/05/15 16:52:50;;;;;;;10.82;4.60;;;21.30;45.60;;;;;;10415597;28;20600;-61
2022/05/15 16:57:51;;;;;;;10.27;4.03;;;21.40;45.30;;;;;;10416158;28;20120;-61
2022/05/15 17:02:52;;;;;;;12.13;4.30;;;21.50;45.70;;;;;;10413502;28;20025;-61
2022/05/15 17:07:53;;;;;;;9.38;3.95;;;21.40;46.60;;;;;;10415260;28;20029;-62
2022/05/15 17:12:55;;;;;;;9.68;3.97;;;21.30;46.20;;;;;;10416612;28;20381;-62
2022/05/15 17:17:56;;;;;;;7.38;3.13;;;21.20;48.30;;;;;;10416598;28;20486;-61
2022/05/15 17:22:57;;;;;;;9.68;3.35;;;21.20;46.50;;;;;;10422049;28;20112;-62
2022/05/15 17:28:03;;;;;;;8.40;2.78;;;21.10;46.50;;;;;;10414527;28;20040;-61
2022/05/15 17:38:23;;;;;;;8.07;2.97;;;21.10;47.80;;;;;;10415245;28;20042;-61
2022/05/15 17:43:24;;;;;;;7.43;3.10;;;21.10;48.40;;;;;;10415195;28;20038;-61
2022/05/15 17:48:25;;;;;;;8.25;3.38;;;21.00;47.20;;;;;;10413842;28;20032;-62
2022/05/15 17:53:25;;;;;;;6.85;3.13;;;21.00;47.90;;;;;;10412534;28;20047;-61
2022/05/15 17:58:30;;;;;;;7.57;3.00;;;21.00;48.20;;;;;;10410054;28;20046;-61
2022/05/15 18:03:31;;;;;;;6.43;3.05;;;21.00;45.80;;;;;;10416769;28;20080;-61
2022/05/15 18:08:31;;;;;;;7.97;4.18;;;21.00;48.40;;;;;;10410754;28;20030;-62
2022/05/15 18:13:35;;;;;;;13.48;3.75;;;21.00;48.50;;;;;;10411444;28;20029;-61
2022/05/15 18:18:36;;;;;;;7.38;3.35;;;21.00;48.50;;;;;;10411018;28;20036;-61
2022/05/15 18:23:36;;;;;;;7.47;2.83;;;21.00;48.70;;;;;;10413595;28;20057;-61
2022/05/15 18:28:37;;;;;;;5.82;2.95;;;21.00;49.00;;;;;;10409915;28;20061;-62
2022/05/15 18:33:40;;;;;;;4.45;2.60;;;21.00;49.30;;;;;;10411031;28;20052;-61
2022/05/15 18:38:41;;;;;;;6.43;2.58;;;21.00;49.00;;;;;;10414071;28;20469;-61
2022/05/15 18:43:41;;;;;;;8.07;2.85;;;21.00;49.00;;;;;;10408986;28;20048;-61
2022/05/15 18:48:42;;;;;;;9.80;3.42;;;21.00;49.20;;;;;;10411168;28;20116;-60
2022/05/15 18:59:02;;;;;;;12.10;3.53;;;21.00;48.90;;;;;;10408900;28;20132;-60
2022/05/15 19:04:03;;;;;;;7.30;3.00;;;21.00;49.40;;;;;;10406548;28;20445;-60
2022/05/15 19:09:04;;;;;;;8.02;3.45;;;21.00;49.40;;;;;;10401747;28;20029;-60
2022/05/15 19:14:07;;;;;;;8.57;3.53;;;21.00;49.60;;;;;;10425761;28;20061;-60
2022/05/15 19:19:08;;;;;;;7.22;2.60;;;21.00;49.90;;;;;;10410965;28;20038;-59
2022/05/15 19:24:08;;;;;;;9.90;3.47;;;21.00;50.70;;;;;;10409311;28;20017;-57
2022/05/15 19:29:09;;;;;;;7.20;3.15;;;21.00;50.30;;;;;;10410832;28;20038;-60
2022/05/15 19:34:10;;;;;;;8.57;3.10;;;21.00;50.50;;;;;;10410596;28;20045;-58
2022/05/15 19:39:11;;;;;;;6.70;2.42;;;21.10;50.90;;;;;;10411627;28;20545;-60
2022/05/15 19:44:12;;;;;;;6.38;2.85;;;21.10;51.00;;;;;;10411186;28;20110;-60
2022/05/15 19:49:12;;;;;;;3.83;2.40;;;21.10;51.40;;;;;;10410966;28;20029;-60
2022/05/15 19:54:14;;;;;;;11.63;3.28;;;21.10;51.60;;;;;;10418915;28;20060;-61
2022/05/15 19:59:19;;;;;;;5.28;2.72;;;21.10;51.70;;;;;;10401798;28;20040;-60
2022/05/15 20:04:20;;;;;;;6.53;2.72;;;21.10;51.60;;;;;;10415963;28;20025;-61
2022/05/15 20:14:41;;;;;;;4.70;2.38;;;21.10;51.60;;;;;;10430162;28;20064;-60
2022/05/15 20:19:42;;;;;;;6.65;2.72;;;21.00;51.60;;;;;;10416861;28;20045;-60
2022/05/15 20:24:43;;;;;;;5.88;2.22;;;21.00;51.60;;;;;;10420662;28;20576;-60
2022/05/15 20:29:44;;;;;;;4.90;2.50;;;21.00;51.70;;;;;;10431277;28;20033;-61
2022/05/15 20:34:44;;;;;;;5.53;2.28;;;21.00;51.60;;;;;;10420931;28;20069;-58
2022/05/15 20:39:45;;;;;;;3.85;2.17;;;21.00;51.70;;;;;;10417736;28;20489;-60
2022/05/15 20:44:46;;;;;;;4.07;1.98;;;21.00;51.80;;;;;;10417630;28;20057;-61
2022/05/15 20:49:46;;;;;;;4.65;2.22;;;21.00;51.90;;;;;;10416844;28;20117;-60
2022/05/15 20:54:48;;;;;;;3.38;1.85;;;21.00;52.10;;;;;;10415409;28;20049;-61
2022/05/15 20:59:48;;;;;;;5.97;2.38;;;20.90;52.00;;;;;;10415465;28;20033;-60
2022/05/15 21:04:49;;;;;;;4.40;2.28;;;20.90;52.10;;;;;;10417344;28;20831;-61
2022/05/15 21:09:51;;;;;;;5.13;2.00;;;20.90;52.20;;;;;;10432426;28;20064;-61
2022/05/15 21:14:52;;;;;;;6.50;2.22;;;20.90;52.20;;;;;;10428286;28;20038;-62
2022/05/15 21:19:52;;;;;;;3.08;2.10;;;20.90;52.20;;;;;;10416602;28;20485;-60
2022/05/15 21:24:53;;;;;;;3.47;2.00;;;20.90;52.20;;;;;;10435842;28;20091;-62
2022/05/15 21:29:54;;;;;;;4.20;1.92;;;20.90;52.30;;;;;;10416243;28;20494;-61
2022/05/15 21:34:55;;;;;;;4.32;2.35;;;20.90;52.40;;;;;;10415459;28;20076;-61
2022/05/15 21:45:15;;;;;;;4.30;2.22;;;20.90;52.50;;;;;;10415456;28;20108;-61
2022/05/15 21:50:16;;;;;;;5.07;2.20;;;20.90;52.40;;;;;;10415610;28;20073;-61
2022/05/15 21:55:17;;;;;;;4.32;2.53;;;20.90;52.40;;;;;;10414967;28;20033;-61
2022/05/15 22:00:32;;;;;;;6.15;3.55;;;20.90;52.50;;;;;;10415066;28;20033;-61
2022/05/15 22:05:33;;;;;;;4.90;2.42;;;20.90;52.70;;;;;;10414356;28;20033;-61
2022/05/15 22:10:36;;;;;;;6.68;2.20;;;20.90;52.60;;;;;;10414433;28;20089;-61
2022/05/15 22:15:37;;;;;;;3.35;2.00;;;20.90;52.70;;;;;;10414322;28;20033;-60
2022/05/15 22:20:38;;;;;;;4.93;2.40;;;20.90;52.60;;;;;;10414590;28;20029;-59
2022/05/15 22:25:39;;;;;;;2.95;1.65;;;20.90;52.50;;;;;;10418704;28;20072;-61
2022/05/15 22:30:42;;;;;;;4.05;2.20;;;20.90;52.60;;;;;;10412854;28;20040;-61
2022/05/15 22:35:56;;;;;;;4.78;2.05;;;20.90;52.50;;;;;;10413435;28;20047;-60
2022/05/15 22:40:56;;;;;;;6.00;2.40;;;20.90;52.50;;;;;;10412733;28;20079;-61
2022/05/15 22:45:57;;;;;;;5.05;2.50;;;20.90;52.50;;;;;;10413351;28;20045;-61
2022/05/15 22:50:58;;;;;;;3.08;2.20;;;20.90;52.50;;;;;;10412086;28;20076;-61
2022/05/15 22:55:59;;;;;;;4.03;2.00;;;20.90;53.00;;;;;;10413292;28;20172;-61
2022/05/15 23:00:59;;;;;;;4.40;2.00;;;20.90;52.60;;;;;;10413035;28;20068;-61
2022/05/15 23:11:20;;;;;;;5.40;2.50;;;20.90;52.60;;;;;;10413316;28;20053;-61
2022/05/15 23:16:21;;;;;;;3.90;2.47;;;20.90;52.70;;;;;;10412631;28;20079;-61
2022/05/15 23:21:21;;;;;;;3.88;2.05;;;20.90;52.80;;;;;;10417284;28;20086;-61
2022/05/15 23:26:22;;;;;;;3.55;2.05;;;20.90;52.80;;;;;;10404133;28;20041;-61
2022/05/15 23:31:23;;;;;;;2.97;1.98;;;20.90;52.80;;;;;;10420567;28;20521;-61
2022/05/15 23:36:24;;;;;;;4.47;2.42;;;20.90;52.90;;;;;;10420174;28;20119;-61
2022/05/15 23:41:25;;;;;;;4.55;2.20;;;20.80;52.90;;;;;;10419350;28;20547;-60
2022/05/15 23:46:26;;;;;;;3.88;1.75;;;20.80;52.90;;;;;;10435376;28;20041;-60
2022/05/15 23:51:26;;;;;;;3.15;2.08;;;20.80;52.90;;;;;;10417585;28;20036;-60
2022/05/15 23:56:27;;;;;;;3.78;1.92;;;20.90;52.90;;;;;;10420012;28;20497;-61
